sensor_id;sensor_type;location;lat;lon;timestamp;temperature;humidity
9939;DHT22;5008;50.656;7.188;2022-10-26T00:01:16;12.20;99.90
9939;DHT22;5008;50.656;7.188;2022-10-26T00:10:32;12.30;99.90
9939;DHT22;5008;50.656;7.188;2022-10-26T00:13:26;12.30;99.90
9939;DHT22;5008;50.656;7.188;2022-10-26T00:16:27;12.20;99.90
9939;DHT22;5008;50.656;7.188;2022-10-26T00:48:21;12.30;99.90
9939;DHT22;5008;50.656;7.188;2022-10-26T00:51:30;12.30;99.90
9939;DHT22;5008;50.656;7.188;2022-10-26T00:54:29;12.40;99.90
9939;DHT22;5008;50.656;7.188;2022-10-26T00:57:27;12.40;99.90
9939;DHT22;5008;50.656;7.188;2022-10-26T01:02:21;12.50;99.90
9939;DHT22;5008;50.656;7.188;2022-10-26T01:03:27;12.50;99.90
9939;DHT22;5008;50.656;7.188;2022-10-26T01:06:06;12.50;99.90
9939;DHT22;5008;50.656;7.188;2022-10-26T01:08:41;12.60;99.90
9939;DHT22;5008;50.656;7.188;2022-10-26T01:11:12;12.70;99.90
9939;DHT22;5008;50.656;7.188;2022-10-26T01:13:41;12.70;99.90
9939;DHT22;5008;50.656;7.188;2022-10-26T01:22:50;12.90;99.90
9939;DHT22;5008;50.656;7.188;2022-10-26T01:25:54;13.00;99.90
9939;DHT22;5008;50.656;7.188;2022-10-26T01:29:13;13.10;99.90
9939;DHT22;5008;50.656;7.188;2022-10-26T01:32:05;13.10;99.90
9939;DHT22;5008;50.656;7.188;2022-10-26T01:34:50;13.30;99.90
9939;DHT22;5008;50.656;7.188;2022-10-26T01:37:51;13.40;99.90
9939;DHT22;5008;50.656;7.188;2022-10-26T01:40:52;13.40;99.90
9939;DHT22;5008;50.656;7.188;2022-10-26T01:43:36;13.40;99.90
9939;DHT22;5008;50.656;7.188;2022-10-26T01:46:18;13.50;99.90
9939;DHT22;5008;50.656;7.188;2022-10-26T01:49:14;13.50;99.90
9939;DHT22;5008;50.656;7.188;2022-10-26T01:51:58;13.60;99.90
9939;DHT22;5008;50.656;7.188;2022-10-26T01:54:45;13.80;99.90
9939;DHT22;5008;50.656;7.188;2022-10-26T02:00:26;14.00;99.90
9939;DHT22;5008;50.656;7.188;2022-10-26T02:03:13;14.00;99.90
9939;DHT22;5008;50.656;7.188;2022-10-26T02:05:59;14.20;99.90
9939;DHT22;5008;50.656;7.188;2022-10-26T02:08:59;14.20;99.90
9939;DHT22;5008;50.656;7.188;2022-10-26T02:11:39;14.20;99.90
9939;DHT22;5008;50.656;7.188;2022-10-26T02:14:16;14.30;99.90
9939;DHT22;5008;50.656;7.188;2022-10-26T02:17:23;14.30;99.90
9939;DHT22;5008;50.656;7.188;2022-10-26T02:20:03;14.30;99.90
9939;DHT22;5008;50.656;7.188;2022-10-26T02:22:47;14.30;99.90
9939;DHT22;5008;50.656;7.188;2022-10-26T02:25:34;14.30;99.90
9939;DHT22;5008;50.656;7.188;2022-10-26T02:28:48;14.30;99.90
9939;DHT22;5008;50.656;7.188;2022-10-26T02:31:37;14.30;99.90
9939;DHT22;5008;50.656;7.188;2022-10-26T02:34:17;14.30;99.90
9939;DHT22;5008;50.656;7.188;2022-10-26T02:37:01;14.30;99.90
9939;DHT22;5008;50.656;7.188;2022-10-26T02:39:38;14.40;99.90
9939;DHT22;5008;50.656;7.188;2022-10-26T02:42:32;14.30;99.90
9939;DHT22;5008;50.656;7.188;2022-10-26T02:45:34;14.30;99.90
9939;DHT22;5008;50.656;7.188;2022-10-26T02:48:30;14.30;99.90
9939;DHT22;5008;50.656;7.188;2022-10-26T02:51:02;14.30;99.90
9939;DHT22;5008;50.656;7.188;2022-10-26T02:56:43;14.20;99.90
9939;DHT22;5008;50.656;7.188;2022-10-26T02:59:49;14.20;99.90
9939;DHT22;5008;50.656;7.188;2022-10-26T03:02:31;14.30;99.90
9939;DHT22;5008;50.656;7.188;2022-10-26T03:05:08;14.30;99.90
9939;DHT22;5008;50.656;7.188;2022-10-26T03:07:37;14.20;99.90
9939;DHT22;5008;50.656;7.188;2022-10-26T03:10:07;14.20;99.90
9939;DHT22;5008;50.656;7.188;2022-10-26T03:12:58;14.10;99.90
9939;DHT22;5008;50.656;7.188;2022-10-26T03:15:31;14.10;99.90
9939;DHT22;5008;50.656;7.188;2022-10-26T03:18:16;14.10;99.90
9939;DHT22;5008;50.656;7.188;2022-10-26T03:21:00;14.10;99.90
9939;DHT22;5008;50.656;7.188;2022-10-26T03:23:30;14.10;99.90
9939;DHT22;5008;50.656;7.188;2022-10-26T03:26:09;14.10;99.90
9939;DHT22;5008;50.656;7.188;2022-10-26T03:28:43;14.10;99.90
9939;DHT22;5008;50.656;7.188;2022-10-26T03:31:15;14.10;99.90
9939;DHT22;5008;50.656;7.188;2022-10-26T03:33:46;14.10;99.90
9939;DHT22;5008;50.656;7.188;2022-10-26T03:36:22;14.10;99.90
9939;DHT22;5008;50.656;7.188;2022-10-26T03:38:53;14.20;99.90
9939;DHT22;5008;50.656;7.188;2022-10-26T03:41:25;14.10;99.90
9939;DHT22;5008;50.656;7.188;2022-10-26T03:44:02;14.00;99.90
9939;DHT22;5008;50.656;7.188;2022-10-26T03:46:34;14.10;99.90
9939;DHT22;5008;50.656;7.188;2022-10-26T03:52:05;14.00;99.90
9939;DHT22;5008;50.656;7.188;2022-10-26T03:54:43;14.00;99.90
9939;DHT22;5008;50.656;7.188;2022-10-26T03:57:19;14.00;99.90
9939;DHT22;5008;50.656;7.188;2022-10-26T03:59:57;13.90;99.90
9939;DHT22;5008;50.656;7.188;2022-10-26T04:03:04;13.90;99.90
9939;DHT22;5008;50.656;7.188;2022-10-26T04:05:47;13.90;99.90
9939;DHT22;5008;50.656;7.188;2022-10-26T04:08:48;13.80;99.90
9939;DHT22;5008;50.656;7.188;2022-10-26T04:11:25;13.70;99.90
9939;DHT22;5008;50.656;7.188;2022-10-26T04:13:53;13.70;99.90
9939;DHT22;5008;50.656;7.188;2022-10-26T04:19:07;13.60;99.90
9939;DHT22;5008;50.656;7.188;2022-10-26T04:21:42;13.60;99.90
9939;DHT22;5008;50.656;7.188;2022-10-26T04:24:13;13.60;99.90
9939;DHT22;5008;50.656;7.188;2022-10-26T04:26:47;13.50;99.90
9939;DHT22;5008;50.656;7.188;2022-10-26T04:29:20;13.60;99.90
9939;DHT22;5008;50.656;7.188;2022-10-26T04:34:30;13.50;99.90
9939;DHT22;5008;50.656;7.188;2022-10-26T04:36:58;13.60;99.90
9939;DHT22;5008;50.656;7.188;2022-10-26T04:39:25;13.60;99.90
9939;DHT22;5008;50.656;7.188;2022-10-26T04:41:53;13.60;99.90
9939;DHT22;5008;50.656;7.188;2022-10-26T04:44:20;13.60;99.90
9939;DHT22;5008;50.656;7.188;2022-10-26T04:46:47;13.50;99.90
9939;DHT22;5008;50.656;7.188;2022-10-26T04:49:14;13.50;99.90
9939;DHT22;5008;50.656;7.188;2022-10-26T04:51:42;13.50;99.90
9939;DHT22;5008;50.656;7.188;2022-10-26T04:54:10;13.50;99.90
9939;DHT22;5008;50.656;7.188;2022-10-26T04:56:37;13.50;99.90
9939;DHT22;5008;50.656;7.188;2022-10-26T04:59:04;13.50;99.90
9939;DHT22;5008;50.656;7.188;2022-10-26T05:01:39;13.50;99.90
9939;DHT22;5008;50.656;7.188;2022-10-26T05:04:06;13.50;99.90
9939;DHT22;5008;50.656;7.188;2022-10-26T05:06:33;13.50;99.90
9939;DHT22;5008;50.656;7.188;2022-10-26T05:09:01;13.50;99.90
9939;DHT22;5008;50.656;7.188;2022-10-26T05:11:28;13.40;99.90
9939;DHT22;5008;50.656;7.188;2022-10-26T05:13:55;13.40;99.90
9939;DHT22;5008;50.656;7.188;2022-10-26T05:16:22;13.30;99.90
9939;DHT22;5008;50.656;7.188;2022-10-26T05:18:49;13.30;99.90
9939;DHT22;5008;50.656;7.188;2022-10-26T05:21:16;13.40;99.90
9939;DHT22;5008;50.656;7.188;2022-10-26T05:23:47;13.30;99.90
9939;DHT22;5008;50.656;7.188;2022-10-26T05:26:17;13.30;99.90
9939;DHT22;5008;50.656;7.188;2022-10-26T05:28:43;13.30;99.90
9939;DHT22;5008;50.656;7.188;2022-10-26T05:31:10;13.30;99.90
9939;DHT22;5008;50.656;7.188;2022-10-26T05:33:38;13.30;99.90
9939;DHT22;5008;50.656;7.188;2022-10-26T05:36:05;13.30;99.90
9939;DHT22;5008;50.656;7.188;2022-10-26T05:38:32;13.20;99.90
9939;DHT22;5008;50.656;7.188;2022-10-26T05:40:59;13.20;99.90
9939;DHT22;5008;50.656;7.188;2022-10-26T05:43:28;13.30;99.90
9939;DHT22;5008;50.656;7.188;2022-10-26T05:45:55;13.30;99.90
9939;DHT22;5008;50.656;7.188;2022-10-26T05:48:21;13.30;99.90
9939;DHT22;5008;50.656;7.188;2022-10-26T05:50:49;13.30;99.90
9939;DHT22;5008;50.656;7.188;2022-10-26T05:53:16;13.30;99.90
9939;DHT22;5008;50.656;7.188;2022-10-26T05:55:43;13.20;99.90
9939;DHT22;5008;50.656;7.188;2022-10-26T05:58:11;13.20;99.90
9939;DHT22;5008;50.656;7.188;2022-10-26T06:00:48;13.30;99.90
9939;DHT22;5008;50.656;7.188;2022-10-26T06:03:40;13.30;99.90
9939;DHT22;5008;50.656;7.188;2022-10-26T06:06:11;13.30;99.90
9939;DHT22;5008;50.656;7.188;2022-10-26T06:08:39;13.30;99.90
9939;DHT22;5008;50.656;7.188;2022-10-26T06:11:08;13.40;99.90
9939;DHT22;5008;50.656;7.188;2022-10-26T06:13:35;13.40;99.90
9939;DHT22;5008;50.656;7.188;2022-10-26T06:16:15;13.40;99.90
9939;DHT22;5008;50.656;7.188;2022-10-26T06:18:50;13.40;99.90
9939;DHT22;5008;50.656;7.188;2022-10-26T06:21:33;13.50;99.90
9939;DHT22;5008;50.656;7.188;2022-10-26T06:24:08;13.40;99.90
9939;DHT22;5008;50.656;7.188;2022-10-26T06:26:43;13.40;99.90
9939;DHT22;5008;50.656;7.188;2022-10-26T06:29:21;13.40;99.90
9939;DHT22;5008;50.656;7.188;2022-10-26T06:31:51;13.40;99.90
9939;DHT22;5008;50.656;7.188;2022-10-26T06:34:23;13.40;99.90
9939;DHT22;5008;50.656;7.188;2022-10-26T06:36:52;13.40;99.90
9939;DHT22;5008;50.656;7.188;2022-10-26T06:39:19;13.40;99.90
9939;DHT22;5008;50.656;7.188;2022-10-26T06:41:47;13.40;99.90
9939;DHT22;5008;50.656;7.188;2022-10-26T06:44:20;13.40;99.90
9939;DHT22;5008;50.656;7.188;2022-10-26T06:46:51;13.50;99.90
9939;DHT22;5008;50.656;7.188;2022-10-26T06:49:30;13.50;99.90
9939;DHT22;5008;50.656;7.188;2022-10-26T06:52:00;13.50;99.90
9939;DHT22;5008;50.656;7.188;2022-10-26T06:54:36;13.50;99.90
9939;DHT22;5008;50.656;7.188;2022-10-26T06:57:32;13.50;99.90
9939;DHT22;5008;50.656;7.188;2022-10-26T07:02:54;13.60;99.90
9939;DHT22;5008;50.656;7.188;2022-10-26T07:05:23;13.60;99.90
9939;DHT22;5008;50.656;7.188;2022-10-26T07:07:50;13.60;99.90
9939;DHT22;5008;50.656;7.188;2022-10-26T07:10:17;13.60;99.90
9939;DHT22;5008;50.656;7.188;2022-10-26T07:12:44;13.60;99.90
9939;DHT22;5008;50.656;7.188;2022-10-26T07:15:11;13.70;99.90
9939;DHT22;5008;50.656;7.188;2022-10-26T07:17:44;13.70;99.90
9939;DHT22;5008;50.656;7.188;2022-10-26T07:20:14;13.70;99.90
9939;DHT22;5008;50.656;7.188;2022-10-26T07:22:50;13.70;99.90
9939;DHT22;5008;50.656;7.188;2022-10-26T07:25:17;13.70;99.90
9939;DHT22;5008;50.656;7.188;2022-10-26T07:27:44;13.70;99.90
9939;DHT22;5008;50.656;7.188;2022-10-26T07:30:11;13.80;99.90
9939;DHT22;5008;50.656;7.188;2022-10-26T07:32:38;13.70;99.90
9939;DHT22;5008;50.656;7.188;2022-10-26T07:35:07;13.70;99.90
9939;DHT22;5008;50.656;7.188;2022-10-26T07:37:35;13.70;99.90
9939;DHT22;5008;50.656;7.188;2022-10-26T07:40:04;13.70;99.90
9939;DHT22;5008;50.656;7.188;2022-10-26T07:42:31;13.70;99.90
9939;DHT22;5008;50.656;7.188;2022-10-26T07:44:58;13.80;99.90
9939;DHT22;5008;50.656;7.188;2022-10-26T07:47:24;13.80;99.90
9939;DHT22;5008;50.656;7.188;2022-10-26T07:49:51;13.90;99.90
9939;DHT22;5008;50.656;7.188;2022-10-26T07:52:18;13.90;99.90
9939;DHT22;5008;50.656;7.188;2022-10-26T07:54:46;14.00;99.90
9939;DHT22;5008;50.656;7.188;2022-10-26T07:57:16;13.90;99.90
9939;DHT22;5008;50.656;7.188;2022-10-26T07:59:43;14.00;99.90
9939;DHT22;5008;50.656;7.188;2022-10-26T08:02:36;14.00;99.90
9939;DHT22;5008;50.656;7.188;2022-10-26T08:05:03;14.00;99.90
9939;DHT22;5008;50.656;7.188;2022-10-26T08:07:30;14.00;99.90
9939;DHT22;5008;50.656;7.188;2022-10-26T08:09:58;14.00;99.90
9939;DHT22;5008;50.656;7.188;2022-10-26T08:12:32;14.00;99.90
9939;DHT22;5008;50.656;7.188;2022-10-26T08:14:59;14.00;99.90
9939;DHT22;5008;50.656;7.188;2022-10-26T08:17:27;14.00;99.90
9939;DHT22;5008;50.656;7.188;2022-10-26T08:19:53;14.10;99.90
9939;DHT22;5008;50.656;7.188;2022-10-26T08:22:20;14.00;99.90
9939;DHT22;5008;50.656;7.188;2022-10-26T08:24:47;14.10;99.90
9939;DHT22;5008;50.656;7.188;2022-10-26T08:27:15;14.10;99.90
9939;DHT22;5008;50.656;7.188;2022-10-26T08:29:42;14.10;99.90
9939;DHT22;5008;50.656;7.188;2022-10-26T08:32:11;14.20;99.90
9939;DHT22;5008;50.656;7.188;2022-10-26T08:34:38;14.30;99.90
9939;DHT22;5008;50.656;7.188;2022-10-26T08:37:07;14.30;99.90
9939;DHT22;5008;50.656;7.188;2022-10-26T08:39:34;14.40;99.90
9939;DHT22;5008;50.656;7.188;2022-10-26T08:42:04;14.50;99.90
9939;DHT22;5008;50.656;7.188;2022-10-26T08:44:37;14.60;99.90
9939;DHT22;5008;50.656;7.188;2022-10-26T08:47:09;14.60;99.90
9939;DHT22;5008;50.656;7.188;2022-10-26T08:49:43;14.70;99.90
9939;DHT22;5008;50.656;7.188;2022-10-26T08:52:14;14.80;99.90
9939;DHT22;5008;50.656;7.188;2022-10-26T08:54:46;14.90;99.90
9939;DHT22;5008;50.656;7.188;2022-10-26T08:57:18;15.00;99.90
9939;DHT22;5008;50.656;7.188;2022-10-26T08:59:52;15.10;99.90
9939;DHT22;5008;50.656;7.188;2022-10-26T09:02:22;15.10;99.90
9939;DHT22;5008;50.656;7.188;2022-10-26T09:04:50;15.20;99.90
9939;DHT22;5008;50.656;7.188;2022-10-26T09:07:38;15.40;99.90
9939;DHT22;5008;50.656;7.188;2022-10-26T09:13:53;15.40;99.90
9939;DHT22;5008;50.656;7.188;2022-10-26T09:16:29;15.50;99.90
9939;DHT22;5008;50.656;7.188;2022-10-26T09:19:10;15.60;99.90
9939;DHT22;5008;50.656;7.188;2022-10-26T09:21:54;15.60;99.90
9939;DHT22;5008;50.656;7.188;2022-10-26T09:24:30;15.60;99.90
9939;DHT22;5008;50.656;7.188;2022-10-26T09:27:04;15.80;99.90
9939;DHT22;5008;50.656;7.188;2022-10-26T09:29:39;15.80;99.90
9939;DHT22;5008;50.656;7.188;2022-10-26T09:32:14;15.70;99.90
9939;DHT22;5008;50.656;7.188;2022-10-26T09:34:48;15.60;99.90
9939;DHT22;5008;50.656;7.188;2022-10-26T09:37:20;15.70;99.90
9939;DHT22;5008;50.656;7.188;2022-10-26T09:39:57;15.70;99.90
9939;DHT22;5008;50.656;7.188;2022-10-26T09:42:30;15.70;99.90
9939;DHT22;5008;50.656;7.188;2022-10-26T09:45:04;15.70;99.90
9939;DHT22;5008;50.656;7.188;2022-10-26T09:47:37;15.70;99.90
9939;DHT22;5008;50.656;7.188;2022-10-26T09:50:19;15.70;99.90
9939;DHT22;5008;50.656;7.188;2022-10-26T09:52:48;15.70;99.90
9939;DHT22;5008;50.656;7.188;2022-10-26T09:55:16;15.70;99.90
9939;DHT22;5008;50.656;7.188;2022-10-26T09:57:45;15.80;99.90
9939;DHT22;5008;50.656;7.188;2022-10-26T10:00:14;15.90;99.90
9939;DHT22;5008;50.656;7.188;2022-10-26T10:02:44;16.00;99.90
9939;DHT22;5008;50.656;7.188;2022-10-26T10:05:30;16.20;99.90
9939;DHT22;5008;50.656;7.188;2022-10-26T10:08:14;16.40;99.90
9939;DHT22;5008;50.656;7.188;2022-10-26T10:10:59;16.50;99.90
9939;DHT22;5008;50.656;7.188;2022-10-26T10:13:29;16.80;99.90
9939;DHT22;5008;50.656;7.188;2022-10-26T10:16:03;17.00;99.90
9939;DHT22;5008;50.656;7.188;2022-10-26T10:18:32;17.10;99.90
9939;DHT22;5008;50.656;7.188;2022-10-26T10:21:04;17.20;99.90
9939;DHT22;5008;50.656;7.188;2022-10-26T10:23:32;17.40;99.90
9939;DHT22;5008;50.656;7.188;2022-10-26T10:26:03;17.50;99.90
9939;DHT22;5008;50.656;7.188;2022-10-26T10:28:30;17.50;99.90
9939;DHT22;5008;50.656;7.188;2022-10-26T10:30:59;17.60;99.90
9939;DHT22;5008;50.656;7.188;2022-10-26T10:33:37;17.70;99.90
9939;DHT22;5008;50.656;7.188;2022-10-26T10:36:07;17.70;99.90
9939;DHT22;5008;50.656;7.188;2022-10-26T10:38:39;17.70;99.90
9939;DHT22;5008;50.656;7.188;2022-10-26T10:41:15;17.60;99.90
9939;DHT22;5008;50.656;7.188;2022-10-26T10:43:44;17.60;99.90
9939;DHT22;5008;50.656;7.188;2022-10-26T10:46:18;17.70;99.90
9939;DHT22;5008;50.656;7.188;2022-10-26T10:48:51;17.70;99.90
9939;DHT22;5008;50.656;7.188;2022-10-26T10:51:20;17.80;99.90
9939;DHT22;5008;50.656;7.188;2022-10-26T10:53:49;17.80;99.90
9939;DHT22;5008;50.656;7.188;2022-10-26T10:56:33;17.90;99.90
9939;DHT22;5008;50.656;7.188;2022-10-26T10:59:18;17.90;99.90
9939;DHT22;5008;50.656;7.188;2022-10-26T11:01:49;18.00;99.90
9939;DHT22;5008;50.656;7.188;2022-10-26T11:04:31;18.20;99.90
9939;DHT22;5008;50.656;7.188;2022-10-26T11:07:08;18.40;99.90
9939;DHT22;5008;50.656;7.188;2022-10-26T11:09:59;18.50;99.90
9939;DHT22;5008;50.656;7.188;2022-10-26T11:12:35;18.50;99.90
9939;DHT22;5008;50.656;7.188;2022-10-26T11:15:12;18.50;99.90
9939;DHT22;5008;50.656;7.188;2022-10-26T11:17:51;18.50;99.90
9939;DHT22;5008;50.656;7.188;2022-10-26T11:20:39;18.30;99.90
9939;DHT22;5008;50.656;7.188;2022-10-26T11:23:19;18.50;99.90
9939;DHT22;5008;50.656;7.188;2022-10-26T11:26:10;18.50;99.90
9939;DHT22;5008;50.656;7.188;2022-10-26T11:29:02;18.80;99.90
9939;DHT22;5008;50.656;7.188;2022-10-26T11:34:53;19.20;99.90
9939;DHT22;5008;50.656;7.188;2022-10-26T11:37:48;19.20;99.90
9939;DHT22;5008;50.656;7.188;2022-10-26T11:40:28;19.40;99.90
9939;DHT22;5008;50.656;7.188;2022-10-26T11:43:15;19.40;99.90
9939;DHT22;5008;50.656;7.188;2022-10-26T11:45:56;19.50;99.90
9939;DHT22;5008;50.656;7.188;2022-10-26T11:48:31;19.50;99.90
9939;DHT22;5008;50.656;7.188;2022-10-26T11:54:47;19.40;99.90
9939;DHT22;5008;50.656;7.188;2022-10-26T11:57:22;19.70;99.90
9939;DHT22;5008;50.656;7.188;2022-10-26T11:59:52;19.80;99.90
9939;DHT22;5008;50.656;7.188;2022-10-26T12:02:23;20.10;99.90
9939;DHT22;5008;50.656;7.188;2022-10-26T12:05:05;20.10;99.90
9939;DHT22;5008;50.656;7.188;2022-10-26T12:07:39;19.70;99.90
9939;DHT22;5008;50.656;7.188;2022-10-26T12:10:22;19.70;99.90
9939;DHT22;5008;50.656;7.188;2022-10-26T12:12:58;19.60;99.90
9939;DHT22;5008;50.656;7.188;2022-10-26T12:15:40;19.60;99.90
9939;DHT22;5008;50.656;7.188;2022-10-26T12:18:14;19.60;99.90
9939;DHT22;5008;50.656;7.188;2022-10-26T12:20:57;19.40;99.90
9939;DHT22;5008;50.656;7.188;2022-10-26T12:23:28;19.40;99.90
9939;DHT22;5008;50.656;7.188;2022-10-26T12:29:28;19.10;99.90
9939;DHT22;5008;50.656;7.188;2022-10-26T12:31:56;19.20;99.90
9939;DHT22;5008;50.656;7.188;2022-10-26T12:34:58;19.20;99.90
9939;DHT22;5008;50.656;7.188;2022-10-26T12:37:32;19.30;99.90
9939;DHT22;5008;50.656;7.188;2022-10-26T12:40:38;19.40;99.90
9939;DHT22;5008;50.656;7.188;2022-10-26T12:43:35;19.40;99.90
9939;DHT22;5008;50.656;7.188;2022-10-26T12:52:50;19.50;99.90
9939;DHT22;5008;50.656;7.188;2022-10-26T12:56:08;19.90;99.90
9939;DHT22;5008;50.656;7.188;2022-10-26T12:59:18;20.00;99.90
9939;DHT22;5008;50.656;7.188;2022-10-26T13:02:30;20.10;99.90
9939;DHT22;5008;50.656;7.188;2022-10-26T13:05:46;20.30;99.90
9939;DHT22;5008;50.656;7.188;2022-10-26T13:09:14;20.70;99.90
9939;DHT22;5008;50.656;7.188;2022-10-26T13:11:46;21.90;99.90
9939;DHT22;5008;50.656;7.188;2022-10-26T13:14:30;22.90;99.90
9939;DHT22;5008;50.656;7.188;2022-10-26T13:17:24;23.30;99.90
9939;DHT22;5008;50.656;7.188;2022-10-26T13:20:13;23.20;99.90
9939;DHT22;5008;50.656;7.188;2022-10-26T13:22:49;23.20;99.90
9939;DHT22;5008;50.656;7.188;2022-10-26T13:25:24;23.50;99.90
9939;DHT22;5008;50.656;7.188;2022-10-26T13:28:30;24.50;99.90
9939;DHT22;5008;50.656;7.188;2022-10-26T13:31:03;25.90;99.90
9939;DHT22;5008;50.656;7.188;2022-10-26T13:33:35;26.30;99.90
9939;DHT22;5008;50.656;7.188;2022-10-26T13:36:14;26.40;99.90
9939;DHT22;5008;50.656;7.188;2022-10-26T13:38:44;26.60;99.90
9939;DHT22;5008;50.656;7.188;2022-10-26T13:41:24;26.60;99.90
9939;DHT22;5008;50.656;7.188;2022-10-26T13:43:57;26.60;99.90
9939;DHT22;5008;50.656;7.188;2022-10-26T13:46:28;27.30;99.90
9939;DHT22;5008;50.656;7.188;2022-10-26T13:49:06;27.50;99.80
9939;DHT22;5008;50.656;7.188;2022-10-26T13:51:42;27.80;99.30
9939;DHT22;5008;50.656;7.188;2022-10-26T13:54:27;27.50;99.10
9939;DHT22;5008;50.656;7.188;2022-10-26T13:57:17;27.40;98.50
9939;DHT22;5008;50.656;7.188;2022-10-26T13:59:53;27.90;97.40
9939;DHT22;5008;50.656;7.188;2022-10-26T14:02:31;27.90;97.60
9939;DHT22;5008;50.656;7.188;2022-10-26T14:05:18;27.30;98.30
9939;DHT22;5008;50.656;7.188;2022-10-26T14:08:03;27.10;98.10
9939;DHT22;5008;50.656;7.188;2022-10-26T14:10:36;26.40;99.00
9939;DHT22;5008;50.656;7.188;2022-10-26T14:13:08;25.70;99.90
9939;DHT22;5008;50.656;7.188;2022-10-26T14:15:54;25.00;99.90
9939;DHT22;5008;50.656;7.188;2022-10-26T14:18:23;24.40;99.90
9939;DHT22;5008;50.656;7.188;2022-10-26T14:20:58;23.70;99.90
9939;DHT22;5008;50.656;7.188;2022-10-26T14:23:33;23.30;99.90
9939;DHT22;5008;50.656;7.188;2022-10-26T14:26:01;23.20;99.90
9939;DHT22;5008;50.656;7.188;2022-10-26T14:28:44;23.10;99.90
9939;DHT22;5008;50.656;7.188;2022-10-26T14:31:25;22.90;99.90
9939;DHT22;5008;50.656;7.188;2022-10-26T14:33:53;22.60;99.90
9939;DHT22;5008;50.656;7.188;2022-10-26T14:36:28;22.30;99.90
9939;DHT22;5008;50.656;7.188;2022-10-26T14:39:00;22.20;99.90
9939;DHT22;5008;50.656;7.188;2022-10-26T14:41:30;22.10;99.90
9939;DHT22;5008;50.656;7.188;2022-10-26T14:44:02;22.00;99.90
9939;DHT22;5008;50.656;7.188;2022-10-26T14:46:33;21.80;99.90
9939;DHT22;5008;50.656;7.188;2022-10-26T14:49:18;21.60;99.90
9939;DHT22;5008;50.656;7.188;2022-10-26T14:51:46;21.40;99.90
9939;DHT22;5008;50.656;7.188;2022-10-26T14:54:19;21.40;99.90
9939;DHT22;5008;50.656;7.188;2022-10-26T14:56:47;21.10;99.90
9939;DHT22;5008;50.656;7.188;2022-10-26T14:59:21;20.90;99.90
9939;DHT22;5008;50.656;7.188;2022-10-26T15:01:53;20.90;99.90
9939;DHT22;5008;50.656;7.188;2022-10-26T15:05:00;20.70;99.90
9939;DHT22;5008;50.656;7.188;2022-10-26T15:10:47;20.50;99.90
9939;DHT22;5008;50.656;7.188;2022-10-26T15:13:31;20.40;99.90
9939;DHT22;5008;50.656;7.188;2022-10-26T15:16:18;20.40;99.90
9939;DHT22;5008;50.656;7.188;2022-10-26T15:18:47;20.30;99.90
9939;DHT22;5008;50.656;7.188;2022-10-26T15:21:22;20.30;99.90
9939;DHT22;5008;50.656;7.188;2022-10-26T15:23:51;20.20;99.90
9939;DHT22;5008;50.656;7.188;2022-10-26T15:26:19;20.10;99.90
9939;DHT22;5008;50.656;7.188;2022-10-26T15:28:58;20.00;99.90
9939;DHT22;5008;50.656;7.188;2022-10-26T15:31:31;19.80;99.90
9939;DHT22;5008;50.656;7.188;2022-10-26T15:34:21;19.70;99.90
9939;DHT22;5008;50.656;7.188;2022-10-26T15:37:06;19.60;99.90
9939;DHT22;5008;50.656;7.188;2022-10-26T15:39:45;19.50;99.90
9939;DHT22;5008;50.656;7.188;2022-10-26T15:42:23;19.30;99.90
9939;DHT22;5008;50.656;7.188;2022-10-26T15:45:12;19.30;99.90
9939;DHT22;5008;50.656;7.188;2022-10-26T15:47:52;19.20;99.90
9939;DHT22;5008;50.656;7.188;2022-10-26T15:50:32;19.00;99.90
9939;DHT22;5008;50.656;7.188;2022-10-26T15:53:16;18.90;99.90
9939;DHT22;5008;50.656;7.188;2022-10-26T15:55:45;18.70;99.90
9939;DHT22;5008;50.656;7.188;2022-10-26T15:58:19;18.60;99.90
9939;DHT22;5008;50.656;7.188;2022-10-26T16:01:11;18.40;99.90
9939;DHT22;5008;50.656;7.188;2022-10-26T16:03:44;18.30;99.90
9939;DHT22;5008;50.656;7.188;2022-10-26T16:06:16;18.20;99.90
9939;DHT22;5008;50.656;7.188;2022-10-26T16:09:10;18.00;99.90
9939;DHT22;5008;50.656;7.188;2022-10-26T16:11:39;17.90;99.90
9939;DHT22;5008;50.656;7.188;2022-10-26T16:14:18;17.80;99.90
9939;DHT22;5008;50.656;7.188;2022-10-26T16:16:54;17.70;99.90
9939;DHT22;5008;50.656;7.188;2022-10-26T16:19:42;17.60;99.90
9939;DHT22;5008;50.656;7.188;2022-10-26T16:22:35;17.40;99.90
9939;DHT22;5008;50.656;7.188;2022-10-26T16:25:02;17.40;99.90
9939;DHT22;5008;50.656;7.188;2022-10-26T16:27:32;17.30;99.90
9939;DHT22;5008;50.656;7.188;2022-10-26T16:30:01;17.10;99.90
9939;DHT22;5008;50.656;7.188;2022-10-26T16:32:29;17.00;99.90
9939;DHT22;5008;50.656;7.188;2022-10-26T16:35:01;16.90;99.90
9939;DHT22;5008;50.656;7.188;2022-10-26T16:37:45;16.80;99.90
9939;DHT22;5008;50.656;7.188;2022-10-26T16:40:13;16.80;99.90
9939;DHT22;5008;50.656;7.188;2022-10-26T16:42:40;16.60;99.90
9939;DHT22;5008;50.656;7.188;2022-10-26T16:48:38;16.40;99.90
9939;DHT22;5008;50.656;7.188;2022-10-26T16:51:21;16.40;99.90
9939;DHT22;5008;50.656;7.188;2022-10-26T16:53:50;16.30;99.90
9939;DHT22;5008;50.656;7.188;2022-10-26T16:56:22;16.20;99.90
9939;DHT22;5008;50.656;7.188;2022-10-26T16:58:50;16.20;99.90
9939;DHT22;5008;50.656;7.188;2022-10-26T17:01:18;16.10;99.90
9939;DHT22;5008;50.656;7.188;2022-10-26T17:03:46;16.10;99.90
9939;DHT22;5008;50.656;7.188;2022-10-26T17:06:16;16.00;99.90
9939;DHT22;5008;50.656;7.188;2022-10-26T17:08:43;16.00;99.90
9939;DHT22;5008;50.656;7.188;2022-10-26T17:11:13;15.90;99.90
9939;DHT22;5008;50.656;7.188;2022-10-26T17:13:40;15.90;99.90
9939;DHT22;5008;50.656;7.188;2022-10-26T17:16:11;15.90;99.90
9939;DHT22;5008;50.656;7.188;2022-10-26T17:18:45;15.80;99.90
9939;DHT22;5008;50.656;7.188;2022-10-26T17:21:14;15.70;99.90
9939;DHT22;5008;50.656;7.188;2022-10-26T17:23:49;15.60;99.90
9939;DHT22;5008;50.656;7.188;2022-10-26T17:26:27;15.50;99.90
9939;DHT22;5008;50.656;7.188;2022-10-26T17:28:55;15.50;99.90
9939;DHT22;5008;50.656;7.188;2022-10-26T17:31:24;15.40;99.90
9939;DHT22;5008;50.656;7.188;2022-10-26T17:33:51;15.30;99.90
9939;DHT22;5008;50.656;7.188;2022-10-26T17:36:20;15.30;99.90
9939;DHT22;5008;50.656;7.188;2022-10-26T17:38:50;15.30;99.90
9939;DHT22;5008;50.656;7.188;2022-10-26T17:41:20;15.20;99.90
9939;DHT22;5008;50.656;7.188;2022-10-26T17:43:58;15.20;99.90
9939;DHT22;5008;50.656;7.188;2022-10-26T17:46:25;15.10;99.90
9939;DHT22;5008;50.656;7.188;2022-10-26T17:48:54;15.10;99.90
9939;DHT22;5008;50.656;7.188;2022-10-26T17:51:38;15.00;99.90
9939;DHT22;5008;50.656;7.188;2022-10-26T17:54:07;14.90;99.90
9939;DHT22;5008;50.656;7.188;2022-10-26T17:56:37;14.90;99.90
9939;DHT22;5008;50.656;7.188;2022-10-26T17:59:11;14.90;99.90
9939;DHT22;5008;50.656;7.188;2022-10-26T18:01:38;14.90;99.90
9939;DHT22;5008;50.656;7.188;2022-10-26T18:04:14;14.90;99.90
9939;DHT22;5008;50.656;7.188;2022-10-26T18:06:59;14.90;99.90
9939;DHT22;5008;50.656;7.188;2022-10-26T18:09:27;14.80;99.90
9939;DHT22;5008;50.656;7.188;2022-10-26T18:11:55;14.80;99.90
9939;DHT22;5008;50.656;7.188;2022-10-26T18:14:22;14.70;99.90
9939;DHT22;5008;50.656;7.188;2022-10-26T18:16:50;14.70;99.90
9939;DHT22;5008;50.656;7.188;2022-10-26T18:19:28;14.70;99.90
9939;DHT22;5008;50.656;7.188;2022-10-26T18:21:55;14.70;99.90
9939;DHT22;5008;50.656;7.188;2022-10-26T18:24:23;14.60;99.90
9939;DHT22;5008;50.656;7.188;2022-10-26T18:26:52;14.50;99.90
9939;DHT22;5008;50.656;7.188;2022-10-26T18:29:19;14.50;99.90